Time;durP1;ratioP1;P1;durP2;ratioP2;P2;SDS_P1;SDS_P2;PMS_P1;PMS_P2;Temp;Humidity;BMP_temperature;BMP_pressure;BME280_temperature;BME280_humidity;BME280_pressure;Samples;Min_cycle;Max_cycle;Signal;HPM_P1;HPM_P2
2023/08/30 00:01:36;;;;;;;3.88;2.22;;;25.10;42.10;;;;;;5034111;28;20025;-61
2023/08/30 00:04:04;;;;;;;3.63;2.40;;;25.00;40.20;;;;;;5034459;28;20348;-61
2023/08/30 00:06:32;;;;;;;3.92;2.40;;;25.10;40.30;;;;;;5034553;28;20494;-62
2023/08/30 00:09:00;;;;;;;3.50;2.50;;;24.90;41.00;;;;;;5034632;28;20037;-63
2023/08/30 00:11:30;;;;;;;4.30;2.55;;;24.70;41.80;;;;;;5034741;28;20144;-62
2023/08/30 00:14:07;;;;;;;3.85;2.38;;;25.40;39.20;;;;;;5034872;28;20025;-61
2023/08/30 00:16:38;;;;;;;4.00;2.65;;;25.50;41.60;;;;;;5033412;28;20348;-61
2023/08/30 00:19:06;;;;;;;4.55;2.58;;;26.00;39.90;;;;;;5035170;28;20021;-61
2023/08/30 00:21:34;;;;;;;4.22;2.33;;;26.80;38.40;;;;;;5034274;28;20439;-61
2023/08/30 00:24:01;;;;;;;3.90;2.63;;;26.30;39.00;;;;;;5034329;28;20036;-61
2023/08/30 00:26:29;;;;;;;4.40;2.30;;;25.80;39.90;;;;;;5034386;28;20456;-61
2023/08/30 00:28:56;;;;;;;4.55;2.55;;;26.10;39.00;;;;;;5035048;28;20049;-62
2023/08/30 00:31:24;;;;;;;2.35;1.77;;;26.50;38.90;;;;;;5035218;28;20341;-61
2023/08/30 00:33:52;;;;;;;3.88;1.70;;;26.30;37.80;;;;;;5035109;28;20108;-63
2023/08/30 00:36:19;;;;;;;4.18;2.45;;;26.00;37.80;;;;;;5034912;28;20028;-62
2023/08/30 00:38:47;;;;;;;3.15;2.17;;;25.40;38.60;;;;;;5033924;28;20025;-61
2023/08/30 00:41:15;;;;;;;3.22;1.90;;;25.50;39.00;;;;;;5035039;28;20021;-62
2023/08/30 00:43:42;;;;;;;4.03;2.10;;;25.60;38.90;;;;;;5034242;28;20021;-62
2023/08/30 00:46:10;;;;;;;3.75;2.00;;;26.10;39.20;;;;;;5034108;28;20025;-61
2023/08/30 00:48:38;;;;;;;3.67;1.60;;;26.70;38.00;;;;;;5033998;28;20030;-61
2023/08/30 00:51:06;;;;;;;3.78;2.00;;;26.40;37.20;;;;;;5033818;28;20358;-61
2023/08/30 00:53:34;;;;;;;3.92;2.10;;;26.20;37.80;;;;;;5033903;28;20478;-64
2023/08/30 00:56:01;;;;;;;2.97;1.90;;;26.00;38.10;;;;;;5034163;28;20033;-62
2023/08/30 00:58:29;;;;;;;3.85;1.83;;;26.60;38.10;;;;;;5033755;28;20029;-62
2023/08/30 01:00:57;;;;;;;2.65;1.80;;;26.70;37.00;;;;;;5033939;28;20022;-62
2023/08/30 01:03:24;;;;;;;4.20;2.00;;;26.40;37.50;;;;;;5033819;28;20022;-63
2023/08/30 01:05:52;;;;;;;2.25;1.60;;;27.10;37.60;;;;;;5033737;28;20095;-63
2023/08/30 01:08:20;;;;;;;3.53;1.80;;;26.70;37.50;;;;;;5033597;28;20088;-66
2023/08/30 01:11:07;;;;;;;4.47;2.00;;;26.70;37.30;;;;;;5033197;28;20026;-66
2023/08/30 01:13:43;;;;;;;2.90;1.80;;;26.60;37.10;;;;;;5019572;28;20080;-66
2023/08/30 01:16:10;;;;;;;2.90;1.60;;;26.30;37.50;;;;;;5033671;28;20237;-66
2023/08/30 01:18:40;;;;;;;4.18;1.92;;;26.70;37.70;;;;;;5033383;28;20022;-66
2023/08/30 01:21:17;;;;;;;3.55;2.00;;;27.00;38.00;;;;;;5033436;28;20042;-67
2023/08/30 01:24:00;;;;;;;4.50;1.70;;;26.90;37.70;;;;;;5002355;28;20420;-66
2023/08/30 01:26:51;;;;;;;2.47;1.70;;;26.90;37.40;;;;;;5018963;28;20025;-66
2023/08/30 01:29:21;;;;;;;2.50;1.75;;;27.40;36.50;;;;;;5037231;28;20040;-65
2023/08/30 01:31:50;;;;;;;3.95;2.08;;;27.40;36.40;;;;;;5037438;28;20025;-63
2023/08/30 01:34:18;;;;;;;2.85;1.75;;;27.60;37.50;;;;;;5037905;28;20502;-62
2023/08/30 01:36:46;;;;;;;2.47;1.80;;;27.70;36.70;;;;;;5037172;28;20036;-63
2023/08/30 01:39:15;;;;;;;3.03;1.58;;;27.70;36.60;;;;;;5036829;28;20436;-63
2023/08/30 01:41:44;;;;;;;2.85;1.60;;;27.60;37.20;;;;;;5036857;28;20025;-62
2023/08/30 01:44:16;;;;;;;2.85;1.73;;;28.00;36.70;;;;;;5038382;28;20030;-62
2023/08/30 01:46:45;;;;;;;2.72;1.58;;;27.90;36.40;;;;;;5038163;28;20021;-63
2023/08/30 01:49:14;;;;;;;6.15;1.70;;;27.30;37.40;;;;;;5020881;28;20340;-63
2023/08/30 01:51:41;;;;;;;2.17;1.60;;;28.00;37.20;;;;;;5037174;28;20044;-63
2023/08/30 01:54:13;;;;;;;2.60;1.50;;;27.80;37.00;;;;;;5036772;28;20029;-63
2023/08/30 01:56:41;;;;;;;2.67;1.70;;;28.40;36.90;;;;;;5038137;28;20113;-63
2023/08/30 01:59:08;;;;;;;4.57;1.75;;;28.50;36.10;;;;;;5036726;28;20031;-66
2023/08/30 02:01:36;;;;;;;2.65;1.58;;;28.20;36.50;;;;;;5036904;28;20052;-67
2023/08/30 02:04:04;;;;;;;2.13;1.50;;;28.40;35.90;;;;;;5037524;28;20097;-67
2023/08/30 02:06:51;;;;;;;2.83;1.60;;;28.90;36.20;;;;;;5036495;28;20038;-67
2023/08/30 02:09:28;;;;;;;3.17;1.35;;;28.70;36.40;;;;;;5032882;28;20060;-67
2023/08/30 02:12:00;;;;;;;3.80;1.73;;;28.70;35.70;;;;;;5037597;28;20018;-62
2023/08/30 02:14:27;;;;;;;;;;;29.10;35.90;;;;;;5037239;28;20022;-63
2023/08/30 02:16:56;;;;;;;2.97;1.50;;;29.00;35.30;;;;;;5036878;28;19909;-63
2023/08/30 02:19:24;;;;;;;2.35;1.50;;;28.50;35.00;;;;;;5036699;28;20029;-63
2023/08/30 02:21:52;;;;;;;3.42;1.42;;;28.40;35.70;;;;;;5036428;28;20056;-63
2023/08/30 02:24:19;;;;;;;1.63;1.35;;;29.00;33.90;;;;;;5037103;28;20053;-62
2023/08/30 02:26:47;;;;;;;2.45;1.60;;;28.70;34.80;;;;;;5036539;28;20120;-63
2023/08/30 02:29:14;;;;;;;2.00;1.40;;;28.00;34.80;;;;;;5036265;28;20029;-61
2023/08/30 02:31:42;;;;;;;2.75;1.40;;;28.50;34.20;;;;;;5036241;28;20345;-62
2023/08/30 02:34:10;;;;;;;2.50;1.52;;;28.90;33.80;;;;;;5036076;28;20452;-63
2023/08/30 02:36:37;;;;;;;5.15;1.70;;;29.40;33.90;;;;;;5035959;28;20026;-64
2023/08/30 02:39:05;;;;;;;3.00;1.30;;;29.50;33.00;;;;;;5034697;28;20104;-63
2023/08/30 02:41:34;;;;;;;3.17;1.60;;;29.80;32.70;;;;;;5036036;28;20095;-63
2023/08/30 02:44:02;;;;;;;2.53;1.40;;;29.50;33.20;;;;;;5035814;28;20045;-63
2023/08/30 02:46:29;;;;;;;2.42;1.60;;;28.90;33.50;;;;;;5035979;28;20111;-63
2023/08/30 02:48:57;;;;;;;2.25;1.40;;;28.90;32.80;;;;;;5035805;28;20032;-63
2023/08/30 02:51:24;;;;;;;1.48;1.20;;;29.10;32.70;;;;;;5035711;28;20026;-64
2023/08/30 02:53:52;;;;;;;1.83;1.27;;;29.10;32.30;;;;;;5035851;28;20038;-62
2023/08/30 02:56:19;;;;;;;2.65;1.80;;;29.50;32.60;;;;;;5035820;28;20029;-63
2023/08/30 02:58:47;;;;;;;2.13;1.30;;;29.40;31.40;;;;;;5036516;28;20072;-63
2023/08/30 03:01:15;;;;;;;2.92;1.40;;;29.00;32.40;;;;;;5035834;28;20329;-63
2023/08/30 03:03:43;;;;;;;3.17;1.42;;;29.20;32.10;;;;;;5035225;28;20030;-63
2023/08/30 03:06:10;;;;;;;1.83;1.30;;;30.00;31.00;;;;;;5035659;28;20029;-63
2023/08/30 03:08:38;;;;;;;2.55;1.50;;;29.50;32.00;;;;;;5036286;28;20456;-62
2023/08/30 03:11:12;;;;;;;2.03;1.50;;;28.90;32.40;;;;;;5036397;28;20451;-63
2023/08/30 03:13:40;;;;;;;2.35;1.63;;;29.00;31.60;;;;;;5019099;28;20037;-62
2023/08/30 03:16:17;;;;;;;2.85;1.50;;;29.10;32.30;;;;;;5035553;28;20026;-62
2023/08/30 03:18:45;;;;;;;2.42;1.23;;;29.30;31.40;;;;;;5035267;28;20056;-61
2023/08/30 03:21:13;;;;;;;3.40;1.40;;;28.80;31.50;;;;;;5035136;28;20045;-62
2023/08/30 03:23:41;;;;;;;3.10;1.30;;;28.50;32.00;;;;;;5018705;28;20037;-70
2023/08/30 03:26:14;;;;;;;2.97;1.35;;;29.20;31.30;;;;;;5034796;28;20030;-67
2023/08/30 03:28:43;;;;;;;2.30;1.20;;;29.00;31.40;;;;;;5034997;28;20044;-68
2023/08/30 03:31:19;;;;;;;2.15;1.25;;;28.90;31.90;;;;;;5034896;28;20406;-67
2023/08/30 03:33:48;;;;;;;2.72;2.10;;;28.90;32.10;;;;;;5018391;28;20109;-68
2023/08/30 03:36:18;;;;;;;1.88;1.20;;;29.40;31.90;;;;;;5035088;28;20090;-68
2023/08/30 03:38:46;;;;;;;3.17;1.30;;;29.30;31.40;;;;;;5034993;28;20075;-66
2023/08/30 03:41:14;;;;;;;2.78;1.40;;;29.00;31.60;;;;;;5035040;28;20467;-68
2023/08/30 03:43:42;;;;;;;2.45;1.17;;;28.40;32.10;;;;;;5034930;28;20029;-68
2023/08/30 03:46:11;;;;;;;1.52;1.33;;;29.10;32.30;;;;;;5035036;28;20029;-68
2023/08/30 03:48:39;;;;;;;2.58;1.30;;;29.60;31.00;;;;;;5034896;28;20448;-68
2023/08/30 03:51:06;;;;;;;2.70;1.35;;;29.50;32.30;;;;;;5034664;28;20112;-68
2023/08/30 03:53:34;;;;;;;1.77;1.33;;;29.60;30.50;;;;;;5034589;28;20444;-68
2023/08/30 03:56:03;;;;;;;1.52;1.30;;;30.10;31.40;;;;;;5034231;28;20440;-68
2023/08/30 03:58:31;;;;;;;2.58;1.30;;;30.20;30.70;;;;;;5034395;28;20163;-66
2023/08/30 04:00:58;;;;;;;2.00;1.20;;;30.70;30.20;;;;;;5035595;28;20021;-67
2023/08/30 04:03:26;;;;;;;2.22;1.38;;;30.50;30.20;;;;;;5034617;28;20036;-66
2023/08/30 04:05:57;;;;;;;3.58;1.30;;;29.70;31.00;;;;;;5035409;28;20294;-67
2023/08/30 04:08:25;;;;;;;2.25;1.38;;;28.60;32.10;;;;;;5034354;28;20167;-67
2023/08/30 04:10:54;;;;;;;2.08;1.40;;;27.80;33.10;;;;;;5035376;28;20033;-67
2023/08/30 04:13:22;;;;;;;2.55;1.20;;;27.80;32.30;;;;;;5034321;28;20037;-68
2023/08/30 04:15:49;;;;;;;1.98;1.35;;;27.60;33.40;;;;;;5034679;28;20057;-68
2023/08/30 04:18:17;;;;;;;2.15;1.40;;;27.20;33.30;;;;;;5034525;28;20136;-67
2023/08/30 04:20:46;;;;;;;2.80;1.30;;;27.10;33.80;;;;;;5035290;28;20052;-67
2023/08/30 04:23:14;;;;;;;1.83;1.48;;;26.90;33.90;;;;;;5034521;28;20035;-68
2023/08/30 04:25:42;;;;;;;2.97;1.50;;;26.80;34.50;;;;;;5034505;28;20099;-68
2023/08/30 04:28:09;;;;;;;3.13;1.23;;;27.00;34.60;;;;;;5034452;28;20036;-68
2023/08/30 04:30:38;;;;;;;2.88;1.60;;;26.70;34.50;;;;;;5034365;28;20072;-68
2023/08/30 04:33:06;;;;;;;2.60;1.30;;;26.80;34.70;;;;;;5034285;28;20029;-66
2023/08/30 04:35:34;;;;;;;3.13;1.30;;;26.60;35.10;;;;;;5034403;28;20458;-68
2023/08/30 04:38:03;;;;;;;2.42;1.52;;;26.50;34.30;;;;;;5034084;28;20025;-67
2023/08/30 04:40:32;;;;;;;1.70;1.38;;;26.50;34.80;;;;;;5034456;28;20458;-68
2023/08/30 04:43:00;;;;;;;1.65;1.20;;;26.50;35.00;;;;;;5034232;28;20036;-67
2023/08/30 04:45:28;;;;;;;2.10;1.38;;;26.40;35.20;;;;;;5035189;28;20103;-68
2023/08/30 04:47:55;;;;;;;3.20;1.30;;;26.40;35.20;;;;;;5034075;28;20125;-68
2023/08/30 04:50:23;;;;;;;3.00;1.30;;;26.30;35.40;;;;;;5034135;28;20037;-68
2023/08/30 04:52:50;;;;;;;1.92;1.38;;;26.40;35.30;;;;;;5035037;28;20021;-67
2023/08/30 04:55:18;;;;;;;3.15;1.50;;;26.40;35.30;;;;;;5035104;28;20062;-68
2023/08/30 04:57:47;;;;;;;3.03;1.38;;;26.30;35.80;;;;;;5033831;28;20022;-67
2023/08/30 05:00:15;;;;;;;1.80;1.27;;;26.40;35.30;;;;;;5034047;28;20463;-68
2023/08/30 05:02:46;;;;;;;2.65;1.50;;;26.40;35.30;;;;;;5036204;28;20048;-68
2023/08/30 05:05:14;;;;;;;1.98;1.55;;;26.50;35.40;;;;;;5038229;28;20021;-68
2023/08/30 05:07:42;;;;;;;6.13;2.25;;;26.30;35.80;;;;;;5038152;28;20384;-69
2023/08/30 05:10:10;;;;;;;3.53;1.60;;;26.30;36.70;;;;;;5039093;28;20466;-68
2023/08/30 05:12:38;;;;;;;3.92;2.00;;;25.80;38.40;;;;;;5038652;28;20071;-62
2023/08/30 05:15:06;;;;;;;3.45;1.80;;;25.70;38.40;;;;;;5037937;28;20521;-62
2023/08/30 05:17:34;;;;;;;3.20;1.70;;;25.60;38.60;;;;;;5038978;28;20124;-63
2023/08/30 05:20:02;;;;;;;2.25;1.60;;;25.50;38.90;;;;;;5037681;28;20077;-62
2023/08/30 05:22:30;;;;;;;3.88;1.60;;;25.40;39.20;;;;;;5037886;28;20018;-63
2023/08/30 05:24:58;;;;;;;3.58;1.80;;;25.40;39.40;;;;;;5037821;28;20031;-62
2023/08/30 05:27:25;;;;;;;6.55;2.40;;;25.40;39.30;;;;;;5037772;28;20072;-63
2023/08/30 05:29:55;;;;;;;5.80;2.08;;;25.20;39.20;;;;;;5037598;28;20049;-64
2023/08/30 05:32:23;;;;;;;3.20;2.03;;;25.30;39.50;;;;;;5038870;28;20022;-63
2023/08/30 05:34:51;;;;;;;5.25;1.90;;;25.10;39.30;;;;;;5037624;28;20033;-62
2023/08/30 05:37:18;;;;;;;3.35;1.98;;;24.70;39.80;;;;;;5038560;28;20458;-63
2023/08/30 05:39:46;;;;;;;3.47;2.20;;;24.70;40.00;;;;;;5037400;28;20025;-63
2023/08/30 05:42:13;;;;;;;2.78;1.80;;;24.80;40.80;;;;;;5038375;28;20022;-62
2023/08/30 05:44:41;;;;;;;4.57;1.95;;;24.90;40.40;;;;;;5037469;28;20059;-63
2023/08/30 05:47:14;;;;;;;4.20;2.20;;;24.90;39.70;;;;;;5037325;28;20083;-62
2023/08/30 05:49:42;;;;;;;3.92;1.67;;;24.70;40.30;;;;;;5037252;28;20436;-64
2023/08/30 05:52:10;;;;;;;3.70;2.00;;;24.60;41.10;;;;;;5037339;28;20076;-62
2023/08/30 05:54:38;;;;;;;3.50;1.83;;;24.20;42.30;;;;;;5037147;28;20041;-62
2023/08/30 05:57:05;;;;;;;3.20;1.88;;;23.90;42.30;;;;;;5038194;28;20056;-62
2023/08/30 05:59:34;;;;;;;4.53;1.55;;;23.60;43.60;;;;;;5038097;28;20531;-63
2023/08/30 06:02:04;;;;;;;5.03;1.65;;;23.20;43.20;;;;;;5037111;28;20021;-62
2023/08/30 06:04:32;;;;;;;5.20;1.80;;;22.00;49.20;;;;;;5037124;28;20411;-62
2023/08/30 06:06:59;;;;;;;3.70;1.73;;;21.40;51.70;;;;;;5037028;28;20029;-60
2023/08/30 06:09:27;;;;;;;4.10;1.83;;;20.60;54.00;;;;;;5036746;28;20071;-62
2023/08/30 06:11:54;;;;;;;3.75;2.00;;;20.60;55.10;;;;;;5036897;28;20396;-63
2023/08/30 06:14:23;;;;;;;3.40;1.90;;;20.20;56.40;;;;;;5037649;28;20352;-63
2023/08/30 06:16:50;;;;;;;4.68;1.77;;;20.20;56.60;;;;;;5037813;28;20557;-62
2023/08/30 06:19:18;;;;;;;3.20;1.60;;;20.00;57.40;;;;;;5037571;28;20025;-63
2023/08/30 06:21:45;;;;;;;3.42;1.80;;;19.70;58.00;;;;;;5036519;28;20061;-63
2023/08/30 06:24:13;;;;;;;2.78;1.55;;;19.60;58.20;;;;;;5036645;28;20021;-61
2023/08/30 06:26:40;;;;;;;2.42;1.50;;;19.40;58.70;;;;;;5037873;28;20164;-64
2023/08/30 06:29:08;;;;;;;3.40;1.65;;;19.00;59.80;;;;;;5036507;28;20045;-62
2023/08/30 06:31:36;;;;;;;2.85;1.50;;;19.10;59.70;;;;;;5037566;28;20514;-62
2023/08/30 06:34:04;;;;;;;5.90;1.50;;;19.00;60.20;;;;;;5036475;28;20029;-63
2023/08/30 06:36:32;;;;;;;3.70;1.92;;;19.00;63.70;;;;;;5036404;28;20112;-63
2023/08/30 06:38:59;;;;;;;4.88;1.83;;;18.50;66.60;;;;;;5037137;28;20018;-62
2023/08/30 06:41:27;;;;;;;5.57;2.35;;;18.50;68.60;;;;;;5036340;28;20435;-63
2023/08/30 06:43:54;;;;;;;7.63;2.40;;;18.20;70.50;;;;;;5036258;28;20034;-63
2023/08/30 06:46:22;;;;;;;4.72;1.90;;;18.00;72.60;;;;;;5036212;28;20364;-63
2023/08/30 06:48:49;;;;;;;6.97;2.60;;;17.60;73.60;;;;;;5036167;28;20033;-63
2023/08/30 06:51:17;;;;;;;4.13;2.05;;;17.40;75.40;;;;;;5036220;28;20395;-64
2023/08/30 06:53:46;;;;;;;4.97;2.60;;;17.20;76.10;;;;;;5036159;28;20026;-64
2023/08/30 06:56:14;;;;;;;6.15;2.38;;;17.10;77.00;;;;;;5036163;28;20025;-64
2023/08/30 06:58:43;;;;;;;6.90;2.47;;;17.10;77.90;;;;;;5035957;28;20447;-64
2023/08/30 07:01:10;;;;;;;5.60;2.65;;;17.30;79.70;;;;;;5035923;28;20112;-63
2023/08/30 07:03:39;;;;;;;5.03;2.40;;;17.10;78.00;;;;;;5036701;28;20052;-67
2023/08/30 07:06:07;;;;;;;5.57;2.10;;;16.90;79.20;;;;;;5036924;28;20053;-68
2023/08/30 07:08:35;;;;;;;5.95;2.22;;;16.80;79.00;;;;;;5035593;28;20029;-68
2023/08/30 07:11:02;;;;;;;3.83;1.70;;;16.60;79.60;;;;;;5035631;28;20025;-68
2023/08/30 07:13:30;;;;;;;3.97;1.90;;;16.60;79.10;;;;;;5036650;28;20022;-67
2023/08/30 07:15:57;;;;;;;4.63;2.30;;;16.40;79.20;;;;;;5035617;28;20025;-69
2023/08/30 07:18:25;;;;;;;4.47;1.80;;;16.20;79.80;;;;;;5036602;28;20009;-68
2023/08/30 07:20:53;;;;;;;3.70;1.80;;;16.20;80.20;;;;;;5035430;28;20045;-68
2023/08/30 07:23:20;;;;;;;4.85;1.90;;;16.40;81.40;;;;;;5036489;28;20025;-68
2023/08/30 07:25:48;;;;;;;3.85;1.70;;;16.40;80.30;;;;;;5035155;28;20029;-68
2023/08/30 07:28:15;;;;;;;2.55;1.60;;;16.40;80.10;;;;;;5036419;28;20024;-68
2023/08/30 07:30:43;;;;;;;3.50;1.95;;;16.40;79.50;;;;;;5035491;28;20459;-68
2023/08/30 07:33:10;;;;;;;4.10;1.50;;;16.40;79.30;;;;;;5035112;28;20036;-69
2023/08/30 07:35:39;;;;;;;4.10;1.55;;;16.60;79.70;;;;;;5035298;28;20171;-67
2023/08/30 07:38:06;;;;;;;3.17;1.60;;;16.40;78.80;;;;;;5036157;28;20403;-68
2023/08/30 07:40:34;;;;;;;3.85;1.88;;;16.40;78.20;;;;;;5036123;28;20018;-67
2023/08/30 07:43:02;;;;;;;6.30;2.40;;;16.40;78.30;;;;;;5035131;28;20021;-68
2023/08/30 07:45:29;;;;;;;3.55;1.95;;;16.10;78.90;;;;;;5035144;28;20033;-68
2023/08/30 07:47:57;;;;;;;2.88;1.65;;;16.10;79.10;;;;;;5034964;28;20110;-64
2023/08/30 07:50:24;;;;;;;4.85;1.70;;;16.00;78.20;;;;;;5036019;28;20025;-64
2023/08/30 07:52:52;;;;;;;3.88;1.75;;;16.00;81.80;;;;;;5034853;28;20053;-65
2023/08/30 07:55:20;;;;;;;3.03;2.10;;;16.00;82.30;;;;;;5035907;28;20018;-64
2023/08/30 07:57:47;;;;;;;3.08;1.92;;;15.80;83.20;;;;;;5034817;28;20022;-65
2023/08/30 08:00:15;;;;;;;2.65;1.70;;;15.80;83.20;;;;;;5035875;28;20029;-63
2023/08/30 08:02:43;;;;;;;2.40;1.55;;;15.60;83.70;;;;;;5034769;28;20049;-64
2023/08/30 08:05:10;;;;;;;3.85;2.15;;;15.80;83.90;;;;;;5034807;28;20436;-64
2023/08/30 08:07:40;;;;;;;5.40;1.95;;;15.60;84.30;;;;;;5034779;28;20033;-63
2023/08/30 08:10:09;;;;;;;3.60;1.70;;;15.50;84.60;;;;;;5034662;28;20104;-64
2023/08/30 08:12:37;;;;;;;3.58;1.70;;;15.60;84.50;;;;;;5034302;28;20056;-64
2023/08/30 08:15:05;;;;;;;3.83;2.17;;;15.60;84.90;;;;;;5034440;28;20040;-65
2023/08/30 08:17:33;;;;;;;3.80;1.83;;;15.70;84.90;;;;;;5035447;28;20033;-65
2023/08/30 08:20:00;;;;;;;4.05;2.30;;;15.80;85.30;;;;;;5033872;28;20072;-64
2023/08/30 08:22:28;;;;;;;5.10;2.47;;;15.80;85.50;;;;;;5034418;28;20347;-63
2023/08/30 08:24:57;;;;;;;6.30;2.95;;;15.80;85.50;;;;;;5034626;28;20036;-66
2023/08/30 08:27:26;;;;;;;5.95;2.97;;;15.80;85.90;;;;;;5035125;28;20029;-65
2023/08/30 08:29:53;;;;;;;4.65;2.72;;;15.70;85.20;;;;;;5034324;28;20109;-66
2023/08/30 08:32:21;;;;;;;6.43;2.75;;;15.60;86.00;;;;;;5034335;28;20347;-65
2023/08/30 08:34:48;;;;;;;4.65;1.98;;;15.50;85.50;;;;;;5035185;28;20032;-65
2023/08/30 08:37:16;;;;;;;6.45;2.50;;;15.50;85.80;;;;;;5033528;28;20427;-64
2023/08/30 08:39:46;;;;;;;5.18;2.53;;;15.40;85.40;;;;;;5034191;28;20018;-65
2023/08/30 08:42:22;;;;;;;3.65;2.42;;;15.50;86.20;;;;;;5034256;28;20064;-65
2023/08/30 08:44:54;;;;;;;3.47;2.50;;;15.50;84.60;;;;;;5034232;28;20025;-66
2023/08/30 08:47:23;;;;;;;4.40;2.60;;;15.60;85.40;;;;;;5034194;28;20029;-65
2023/08/30 08:49:52;;;;;;;4.03;2.70;;;15.70;85.10;;;;;;5033976;28;20040;-65
2023/08/30 08:52:20;;;;;;;5.57;3.53;;;15.70;85.70;;;;;;5035134;28;20470;-66
2023/08/30 08:54:47;;;;;;;4.10;2.47;;;15.80;85.20;;;;;;5034059;28;20033;-66
2023/08/30 08:57:15;;;;;;;6.65;4.30;;;15.70;83.90;;;;;;5034095;28;20026;-65
2023/08/30 08:59:43;;;;;;;7.47;3.33;;;15.40;84.50;;;;;;5034899;28;20018;-65
2023/08/30 09:02:15;;;;;;;3.80;2.60;;;15.30;85.70;;;;;;5034001;28;20032;-64
2023/08/30 09:04:42;;;;;;;6.45;2.67;;;15.30;85.90;;;;;;5034067;28;20030;-66
2023/08/30 09:07:11;;;;;;;3.08;2.10;;;15.30;86.70;;;;;;5034072;28;20108;-64
2023/08/30 09:09:39;;;;;;;4.78;1.80;;;15.30;86.10;;;;;;5033866;28;20029;-65
2023/08/30 09:12:07;;;;;;;4.03;2.35;;;15.30;85.10;;;;;;5034933;28;20444;-64
2023/08/30 09:14:34;;;;;;;4.32;2.50;;;15.10;85.90;;;;;;5034802;28;20398;-64
2023/08/30 09:17:04;;;;;;;3.47;1.88;;;15.10;85.90;;;;;;5034866;28;20017;-65
2023/08/30 09:19:31;;;;;;;3.38;2.25;;;15.10;85.60;;;;;;5033797;28;20033;-64
2023/08/30 09:22:00;;;;;;;4.03;2.40;;;15.10;85.10;;;;;;5033745;28;20188;-65
2023/08/30 09:24:39;;;;;;;5.90;2.47;;;15.00;85.30;;;;;;5017781;28;20037;-66
2023/08/30 09:27:07;;;;;;;5.53;2.35;;;15.00;85.80;;;;;;5033860;28;20026;-65
2023/08/30 09:29:34;;;;;;;5.13;2.40;;;14.90;86.70;;;;;;5033686;28;20029;-66
2023/08/30 09:32:03;;;;;;;5.97;3.13;;;15.00;86.70;;;;;;5033745;28;20116;-65
2023/08/30 09:34:31;;;;;;;7.68;3.42;;;15.10;86.70;;;;;;5033678;28;20065;-65
2023/08/30 09:37:01;;;;;;;6.13;3.70;;;15.30;87.20;;;;;;5033708;28;20026;-65
2023/08/30 09:39:28;;;;;;;8.05;3.90;;;15.40;86.80;;;;;;5033537;28;20045;-66
2023/08/30 09:41:56;;;;;;;4.22;2.60;;;15.20;86.40;;;;;;5033626;28;20030;-65
2023/08/30 09:44:31;;;;;;;4.03;2.58;;;15.10;86.10;;;;;;5033829;28;20477;-63
2023/08/30 09:46:59;;;;;;;3.97;1.98;;;15.10;87.00;;;;;;5034314;28;20025;-64
2023/08/30 09:49:27;;;;;;;4.72;2.25;;;15.10;85.80;;;;;;5035324;28;20474;-63
2023/08/30 09:51:57;;;;;;;4.90;2.00;;;15.00;85.50;;;;;;5037279;28;20038;-64
2023/08/30 09:54:25;;;;;;;2.75;1.90;;;15.00;84.90;;;;;;5038128;28;20032;-64
2023/08/30 09:56:53;;;;;;;3.78;2.10;;;15.00;84.80;;;;;;5037315;28;20423;-65
2023/08/30 09:59:22;;;;;;;3.50;2.10;;;15.00;84.80;;;;;;5037082;28;20057;-65
2023/08/30 10:01:52;;;;;;;3.15;2.30;;;14.90;85.00;;;;;;5037186;28;20022;-65
2023/08/30 10:04:21;;;;;;;4.20;2.35;;;14.90;85.60;;;;;;5037004;28;20036;-64
2023/08/30 10:06:49;;;;;;;3.92;2.13;;;14.80;85.90;;;;;;5037068;28;20030;-63
2023/08/30 10:09:19;;;;;;;3.50;2.17;;;14.70;86.70;;;;;;5036918;28;20026;-64
2023/08/30 10:11:47;;;;;;;2.65;2.00;;;14.80;86.90;;;;;;5036903;28;20052;-65
2023/08/30 10:14:15;;;;;;;3.35;1.98;;;15.00;87.20;;;;;;5036720;28;20116;-65
2023/08/30 10:16:47;;;;;;;2.80;2.10;;;15.00;86.80;;;;;;5036861;28;20025;-64
2023/08/30 10:19:30;;;;;;;5.28;2.35;;;15.10;86.70;;;;;;5036429;28;20025;-64
2023/08/30 10:22:03;;;;;;;3.13;2.17;;;15.00;86.00;;;;;;5037712;28;20141;-63
2023/08/30 10:24:35;;;;;;;4.32;2.00;;;15.00;86.10;;;;;;5020424;28;20040;-64
2023/08/30 10:27:07;;;;;;;4.70;1.77;;;14.90;86.00;;;;;;5036678;28;20037;-65
2023/08/30 10:29:37;;;;;;;4.28;2.20;;;14.80;86.30;;;;;;5036724;28;20075;-64
2023/08/30 10:32:08;;;;;;;3.20;2.10;;;14.80;86.20;;;;;;5036555;28;20033;-64
2023/08/30 10:34:37;;;;;;;3.60;2.13;;;14.90;87.00;;;;;;5036444;28;20029;-63
2023/08/30 10:37:08;;;;;;;3.40;2.00;;;15.00;87.10;;;;;;5037506;28;20021;-63
2023/08/30 10:39:41;;;;;;;3.30;2.17;;;15.10;87.00;;;;;;5020107;28;20022;-65
2023/08/30 10:42:14;;;;;;;4.65;2.10;;;15.00;86.70;;;;;;5036398;28;20129;-63
2023/08/30 10:44:59;;;;;;;4.35;2.38;;;14.90;87.00;;;;;;5036304;28;20087;-61
2023/08/30 10:47:31;;;;;;;3.47;2.30;;;14.90;86.70;;;;;;5036280;28;20030;-64
2023/08/30 10:50:00;;;;;;;4.05;2.65;;;14.90;87.00;;;;;;5036201;28;20034;-65
2023/08/30 10:52:29;;;;;;;3.97;2.50;;;14.90;87.50;;;;;;5019885;28;20041;-62
2023/08/30 10:55:10;;;;;;;3.83;2.53;;;14.60;88.70;;;;;;5035913;28;20021;-63
2023/08/30 10:57:41;;;;;;;4.57;2.83;;;14.60;88.50;;;;;;5020053;28;20421;-62
2023/08/30 11:00:22;;;;;;;3.17;2.13;;;14.60;88.40;;;;;;5034979;28;20436;-61
2023/08/30 11:02:51;;;;;;;4.40;2.60;;;14.70;88.80;;;;;;5036069;28;20022;-62
2023/08/30 11:05:23;;;;;;;4.05;2.63;;;14.80;88.70;;;;;;5035931;28;20033;-63
2023/08/30 11:07:51;;;;;;;3.35;2.35;;;15.00;88.80;;;;;;5035965;28;20033;-63
2023/08/30 11:10:20;;;;;;;4.22;2.65;;;15.00;88.40;;;;;;5035795;28;20030;-63
2023/08/30 11:12:49;;;;;;;4.35;2.10;;;15.10;87.90;;;;;;5036703;28;20100;-63
2023/08/30 11:15:17;;;;;;;4.20;2.30;;;15.10;87.60;;;;;;5019352;28;20053;-63
2023/08/30 11:17:45;;;;;;;3.58;2.35;;;15.00;86.70;;;;;;5035516;28;20444;-62
2023/08/30 11:20:19;;;;;;;4.05;2.33;;;15.00;87.10;;;;;;5035502;28;20041;-63
2023/08/30 11:22:49;;;;;;;4.30;2.45;;;14.90;87.60;;;;;;5035827;28;20036;-62
2023/08/30 11:25:17;;;;;;;4.93;2.55;;;14.90;87.90;;;;;;5019548;28;20022;-65
2023/08/30 11:27:45;;;;;;;4.88;3.00;;;15.00;88.20;;;;;;5035372;28;20244;-63
2023/08/30 11:30:13;;;;;;;4.95;2.92;;;15.00;88.10;;;;;;5035680;28;20032;-62
2023/08/30 11:32:45;;;;;;;4.57;2.92;;;14.80;88.30;;;;;;5035287;28;20025;-63
2023/08/30 11:35:12;;;;;;;5.13;3.17;;;14.60;89.20;;;;;;5035353;28;20032;-63
2023/08/30 11:37:42;;;;;;;6.80;3.17;;;14.50;89.70;;;;;;5035284;28;20026;-63
2023/08/30 11:40:12;;;;;;;3.38;2.65;;;14.50;90.10;;;;;;5035137;28;20022;-63
2023/08/30 11:42:40;;;;;;;4.20;3.15;;;14.50;89.70;;;;;;5018724;28;20072;-63
2023/08/30 11:45:09;;;;;;;4.28;2.70;;;14.40;90.00;;;;;;5035111;28;20448;-62
2023/08/30 11:47:36;;;;;;;3.80;2.65;;;14.40;89.40;;;;;;5035165;28;20040;-63
2023/08/30 11:50:06;;;;;;;5.25;2.22;;;14.60;88.40;;;;;;5035055;28;20108;-62
2023/08/30 11:52:36;;;;;;;2.97;2.13;;;14.50;87.70;;;;;;5018981;28;20036;-63
2023/08/30 11:55:04;;;;;;;3.38;2.20;;;14.50;87.60;;;;;;5034868;28;20109;-63
2023/08/30 11:57:36;;;;;;;2.45;1.77;;;14.60;86.90;;;;;;5034980;28;20036;-63
2023/08/30 12:00:12;;;;;;;;;;;14.60;86.10;;;;;;5018967;28;20022;-63
2023/08/30 12:02:41;;;;;;;3.30;1.85;;;14.60;85.70;;;;;;5034945;28;19905;-62
2023/08/30 12:05:15;;;;;;;3.22;2.10;;;14.60;85.60;;;;;;5034724;28;20113;-63
2023/08/30 12:07:43;;;;;;;3.38;1.90;;;14.50;85.40;;;;;;5034675;28;20108;-63
2023/08/30 12:10:17;;;;;;;3.53;2.05;;;14.50;85.30;;;;;;5035721;28;20279;-62
2023/08/30 12:12:48;;;;;;;4.80;2.00;;;14.50;86.10;;;;;;5034578;28;20352;-63
2023/08/30 12:15:16;;;;;;;3.05;1.90;;;14.60;85.40;;;;;;5034650;28;20029;-63
2023/08/30 12:17:44;;;;;;;2.88;2.40;;;14.60;85.60;;;;;;5034530;28;20029;-63
2023/08/30 12:20:20;;;;;;;2.60;1.92;;;14.50;86.20;;;;;;5035367;28;20486;-62
2023/08/30 12:22:50;;;;;;;2.92;1.90;;;14.60;85.60;;;;;;5034419;28;20440;-63
2023/08/30 12:25:26;;;;;;;2.47;1.80;;;14.60;85.60;;;;;;5034494;28;20025;-62
2023/08/30 12:27:54;;;;;;;4.00;2.10;;;14.50;85.60;;;;;;5034340;28;20072;-66
2023/08/30 12:30:22;;;;;;;4.03;2.00;;;14.40;85.90;;;;;;5034388;28;20117;-63
2023/08/30 12:32:49;;;;;;;3.00;1.90;;;14.50;86.20;;;;;;5034278;28;20025;-64
2023/08/30 12:35:17;;;;;;;2.90;2.05;;;14.40;85.60;;;;;;5034379;28;20032;-63
2023/08/30 12:37:45;;;;;;;2.65;1.90;;;14.40;86.20;;;;;;5034240;28;20029;-63
2023/08/30 12:40:13;;;;;;;2.60;1.92;;;14.40;85.80;;;;;;5035304;28;20113;-65
2023/08/30 12:42:41;;;;;;;3.75;2.17;;;14.40;86.10;;;;;;5034281;28;20025;-63
2023/08/30 12:45:10;;;;;;;3.53;2.22;;;14.40;86.00;;;;;;5034311;28;20352;-63
2023/08/30 12:47:37;;;;;;;3.92;2.17;;;14.40;86.10;;;;;;5034179;28;20037;-63
2023/08/30 12:50:06;;;;;;;2.78;2.15;;;14.50;86.30;;;;;;5034073;28;20025;-63
2023/08/30 12:52:33;;;;;;;3.25;2.00;;;14.50;86.70;;;;;;5035081;28;20355;-64
2023/08/30 12:55:01;;;;;;;2.88;2.33;;;14.50;86.70;;;;;;5034081;28;20122;-62
2023/08/30 12:57:29;;;;;;;3.88;2.50;;;14.50;86.60;;;;;;5035242;28;20025;-64